Time;durP1;ratioP1;P1;durP2;ratioP2;P2;SDS_P1;SDS_P2;PMS_P1;PMS_P2;Temp;Humidity;BMP_temperature;BMP_pressure;BME280_temperature;BME280_humidity;BME280_pressure;Samples;Min_cycle;Max_cycle;Signal;HPM_P1;HPM_P2
2021/09/26 00:01:11;;;;;;;5.93;4.43;;;;;;;17.17;62.58;101888.22;5133644;27;20263;-59
2021/09/26 00:03:37;;;;;;;5.67;4.47;;;;;;;17.16;62.17;101892.25;5133413;27;20189;-59
2021/09/26 00:06:02;;;;;;;6.87;4.20;;;;;;;17.14;62.04;101884.28;5133023;27;20178;-59
2021/09/26 00:08:28;;;;;;;5.57;4.10;;;;;;;17.14;62.25;101887.09;5133765;27;20539;-59
2021/09/26 00:10:53;;;;;;;5.97;4.47;;;;;;;17.15;62.56;101883.03;5133525;27;20178;-59
2021/09/26 00:13:19;;;;;;;7.30;4.23;;;;;;;16.75;62.24;101814.69;5133031;27;20184;-60
2021/09/26 00:15:45;;;;;;;4.93;4.40;;;;;;;17.12;62.28;101872.72;5132629;27;20280;-59
2021/09/26 00:18:10;;;;;;;5.63;4.17;;;;;;;17.07;61.69;101864.13;5114898;27;20185;-59
2021/09/26 00:20:36;;;;;;;11.50;5.20;;;;;;;17.06;61.82;101866.13;5133657;27;20255;-59
2021/09/26 00:23:02;;;;;;;12.47;5.10;;;;;;;17.05;61.38;101867.34;5133407;27;20246;-60
2021/09/26 00:25:29;;;;;;;6.27;4.00;;;;;;;17.05;61.03;101872.97;5132674;27;20179;-60
2021/09/26 00:27:54;;;;;;;5.97;4.27;;;;;;;16.99;60.50;101866.34;5133289;27;20177;-60
2021/09/26 00:30:20;;;;;;;6.00;4.10;;;;;;;17.05;59.75;101875.00;5133143;27;20179;-60
2021/09/26 00:32:46;;;;;;;4.87;3.60;;;;;;;17.03;58.99;101874.63;5132859;27;20184;-60
2021/09/26 00:35:13;;;;;;;4.67;3.20;;;;;;;16.98;59.02;101874.41;5132306;27;20243;-59
2021/09/26 00:37:39;;;;;;;5.83;3.73;;;;;;;16.93;58.51;101872.94;5132835;27;20603;-60
2021/09/26 00:40:06;;;;;;;7.53;4.20;;;;;;;16.84;58.80;101870.81;5133079;27;20192;-60
2021/09/26 00:42:32;;;;;;;6.27;3.97;;;;;;;16.80;58.24;101872.91;5132705;27;20191;-60
2021/09/26 00:44:58;;;;;;;7.10;3.70;;;;;;;16.73;58.89;101865.97;5132548;27;20203;-60
2021/09/26 00:47:24;;;;;;;5.40;3.77;;;;;;;16.30;59.00;101807.63;5132769;27;20170;-59
2021/09/26 00:49:51;;;;;;;5.30;3.53;;;;;;;16.65;58.75;101873.78;5132231;27;20240;-60
2021/09/26 00:52:20;;;;;;;5.53;3.60;;;;;;;16.64;58.79;101864.59;5132374;27;20180;-60
2021/09/26 00:54:46;;;;;;;4.93;3.60;;;;;;;16.60;59.08;101860.34;5132354;27;20188;-60
2021/09/26 00:57:12;;;;;;;4.33;3.37;;;;;;;16.58;59.05;101860.78;5131713;27;20268;-59
2021/09/26 00:59:38;;;;;;;7.87;3.80;;;;;;;16.07;59.36;101788.28;5132404;27;20176;-60
2021/09/26 01:02:04;;;;;;;5.10;3.50;;;;;;;16.57;59.45;101854.84;5132639;27;20176;-59
2021/09/26 01:04:31;;;;;;;6.23;3.57;;;;;;;16.60;59.53;101855.50;5132204;27;20245;-60
2021/09/26 01:07:14;;;;;;;6.03;3.50;;;;;;;16.60;59.42;101852.72;5132407;27;20180;-60
2021/09/26 01:09:42;;;;;;;4.27;3.53;;;;;;;16.61;59.56;101853.50;5132296;27;20186;-59
2021/09/26 01:12:29;;;;;;;6.20;3.87;;;;;;;16.60;59.87;101858.31;5132170;27;20177;-59
2021/09/26 01:15:08;;;;;;;6.97;4.03;;;;;;;16.60;59.66;101858.31;5130985;27;20225;-59
2021/09/26 01:17:35;;;;;;;5.73;3.40;;;;;;;16.50;59.75;101856.59;5132021;27;20208;-60
2021/09/26 01:20:25;;;;;;;4.50;3.50;;;;;;;16.59;59.65;101867.94;5132192;27;20187;-59
2021/09/26 01:23:17;;;;;;;4.60;3.50;;;;;;;16.58;59.74;101862.00;5132140;27;20235;-59
2021/09/26 01:26:20;;;;;;;4.87;3.40;;;;;;;16.58;59.51;101857.19;5131414;27;20165;-60
2021/09/26 01:29:11;;;;;;;5.77;3.57;;;;;;;16.54;59.41;101865.69;5132330;27;20183;-60
2021/09/26 01:31:49;;;;;;;5.13;3.20;;;;;;;16.55;59.68;101867.25;5131835;27;20185;-59
2021/09/26 01:34:23;;;;;;;3.93;3.30;;;;;;;16.56;59.66;101862.44;5131601;27;20304;-60
2021/09/26 01:37:07;;;;;;;6.90;3.53;;;;;;;16.54;59.36;101856.53;5131191;27;20218;-60
2021/09/26 01:39:58;;;;;;;8.40;3.80;;;;;;;16.50;59.52;101858.63;5131646;27;20185;-59
2021/09/26 01:42:29;;;;;;;6.37;3.57;;;;;;;16.48;59.44;101859.06;5131605;27;20175;-60
2021/09/26 01:45:27;;;;;;;4.10;3.40;;;;;;;16.49;59.19;101866.22;5131299;27;20173;-60
2021/09/26 01:48:00;;;;;;;4.93;3.70;;;;;;;16.40;59.15;101859.72;5120421;27;20681;-60
2021/09/26 01:50:26;;;;;;;5.60;3.67;;;;;;;16.42;58.88;101860.84;5131145;27;20675;-60
2021/09/26 01:52:56;;;;;;;7.30;3.80;;;;;;;16.09;58.73;101825.78;5131306;27;20269;-59
2021/09/26 01:55:26;;;;;;;4.97;4.00;;;;;;;15.88;59.08;101803.22;5130700;27;20231;-60
2021/09/26 01:57:54;;;;;;;9.07;3.83;;;;;;;16.32;59.56;101873.09;5131166;27;20188;-60
2021/09/26 02:00:19;;;;;;;10.17;3.93;;;;;;;16.19;59.32;101861.06;5131417;27;20179;-60
2021/09/26 02:02:48;;;;;;;6.13;4.30;;;;;;;16.22;59.94;101879.75;5131301;27;20314;-59
2021/09/26 02:05:15;;;;;;;5.50;3.70;;;;;;;16.02;59.77;101851.13;5130695;27;20183;-59
2021/09/26 02:07:44;;;;;;;4.43;3.47;;;;;;;16.14;60.14;101877.59;5131304;27;20177;-59
2021/09/26 02:10:11;;;;;;;8.83;3.57;;;;;;;15.83;60.06;101832.47;5131448;27;20717;-59
2021/09/26 02:12:37;;;;;;;8.80;4.73;;;;;;;16.10;60.10;101877.69;5131389;27;20721;-61
2021/09/26 02:15:06;;;;;;;7.77;3.70;;;;;;;16.09;60.51;101875.34;5130493;27;20308;-60
2021/09/26 02:17:32;;;;;;;4.27;3.57;;;;;;;16.03;60.39;101875.06;5130841;27;20353;-59
2021/09/26 02:20:01;;;;;;;5.23;3.57;;;;;;;15.97;59.96;101867.66;5131161;27;20180;-61
2021/09/26 02:22:28;;;;;;;5.80;3.50;;;;;;;15.80;59.68;101843.75;5130891;27;20546;-60
2021/09/26 02:24:54;;;;;;;6.93;3.67;;;;;;;15.90;59.66;101868.66;5130612;27;20173;-60
2021/09/26 02:27:20;;;;;;;5.10;3.80;;;;;;;15.88;60.38;101870.31;5130364;27;20252;-60
2021/09/26 02:29:45;;;;;;;4.40;3.70;;;;;;;15.85;60.44;101874.75;5130998;27;20264;-59
2021/09/26 02:32:11;;;;;;;5.03;3.47;;;;;;;15.85;60.33;101880.34;5130651;27;20185;-60
2021/09/26 02:34:36;;;;;;;5.07;3.50;;;;;;;15.79;60.63;101882.09;5130981;27;20189;-59
2021/09/26 02:37:02;;;;;;;10.20;3.93;;;;;;;15.73;60.56;101892.22;5130732;27;20210;-60
2021/09/26 02:39:28;;;;;;;6.27;4.13;;;;;;;15.30;60.57;101832.19;5130697;28;20801;-60
2021/09/26 02:42:02;;;;;;;6.57;3.63;;;;;;;15.60;60.59;101894.16;5131004;28;20174;-59
2021/09/26 02:44:38;;;;;;;8.10;4.30;;;;;;;15.59;60.71;101883.41;5130832;28;20172;-59
2021/09/26 02:47:11;;;;;;;6.50;3.80;;;;;;;15.53;60.98;101883.13;5109942;28;20197;-59
2021/09/26 02:49:37;;;;;;;5.93;4.13;;;;;;;15.40;61.77;101884.25;5110214;28;20170;-59
2021/09/26 02:52:06;;;;;;;9.20;4.07;;;;;;;15.38;62.08;101875.53;5109947;28;20197;-59
2021/09/26 02:54:36;;;;;;;4.90;3.70;;;;;;;15.33;61.75;101879.66;5109855;28;20251;-59
2021/09/26 02:57:02;;;;;;;6.33;4.10;;;;;;;15.29;61.90;101875.31;5113142;28;20265;-59
2021/09/26 02:59:27;;;;;;;7.27;4.17;;;;;;;15.31;62.24;101884.06;5130581;28;20181;-61
2021/09/26 03:01:54;;;;;;;9.17;4.53;;;;;;;15.18;62.20;101875.59;5130537;28;20188;-59
2021/09/26 03:04:20;;;;;;;9.30;4.27;;;;;;;15.23;62.48;101883.44;5130692;28;20647;-59
2021/09/26 03:06:46;;;;;;;21.83;5.23;;;;;;;15.24;62.54;101895.38;5130186;28;20177;-59
2021/09/26 03:09:12;;;;;;;16.13;5.20;;;;;;;14.83;62.61;101837.28;5130882;28;20193;-58
2021/09/26 03:11:37;;;;;;;20.17;5.70;;;;;;;14.99;62.59;101878.41;5130510;28;20186;-59
2021/09/26 03:14:03;;;;;;;14.50;5.20;;;;;;;15.12;62.45;101894.06;5130225;28;20236;-60
2021/09/26 03:16:29;;;;;;;16.13;5.30;;;;;;;14.79;62.84;101880.44;5129954;28;20271;-60
2021/09/26 03:18:54;;;;;;;15.20;5.50;;;;;;;15.03;62.87;101905.03;5130641;28;20172;-60
2021/09/26 03:21:20;;;;;;;12.33;4.57;;;;;;;15.04;63.32;101908.59;5130180;28;20575;-59
2021/09/26 03:23:45;;;;;;;14.73;4.67;;;;;;;15.06;63.09;101904.16;5130493;28;20264;-59
2021/09/26 03:26:11;;;;;;;13.60;4.77;;;;;;;15.05;62.87;101897.00;5129841;28;20189;-59
2021/09/26 03:28:36;;;;;;;12.90;4.80;;;;;;;14.33;63.07;101814.44;5130425;28;20455;-59
2021/09/26 03:31:02;;;;;;;10.80;4.77;;;;;;;14.80;63.55;101913.50;5130457;28;20207;-59
2021/09/26 03:33:28;;;;;;;9.37;4.90;;;;;;;14.83;63.35;101897.91;5129940;28;20191;-59
2021/09/26 03:35:53;;;;;;;16.50;4.70;;;;;;;14.86;62.98;101914.56;5129751;28;20223;-59
2021/09/26 03:38:19;;;;;;;11.77;4.47;;;;;;;14.77;63.83;101916.38;5132549;27;20271;-59
2021/09/26 03:40:44;;;;;;;9.63;4.50;;;;;;;14.82;63.39;101915.88;5134244;27;20185;-59
2021/09/26 03:43:10;;;;;;;11.23;4.70;;;;;;;14.78;64.01;101915.16;5134250;27;20184;-58
2021/09/26 03:45:36;;;;;;;8.60;4.83;;;;;;;14.58;65.55;101919.94;5133675;27;20194;-59
2021/09/26 03:48:02;;;;;;;6.30;4.70;;;;;;;14.64;65.45;101926.59;5134144;27;20184;-60
2021/09/26 03:50:27;;;;;;;7.30;5.07;;;;;;;14.70;66.36;101928.44;5133747;27;20642;-59
2021/09/26 03:52:53;;;;;;;7.73;4.80;;;;;;;14.73;65.94;101922.03;5133589;27;20173;-59
2021/09/26 03:55:18;;;;;;;10.80;4.93;;;;;;;14.74;65.40;101929.19;5114687;27;20190;-59
2021/09/26 03:57:45;;;;;;;10.50;5.10;;;;;;;14.60;66.89;101923.88;5133578;27;20750;-59
2021/09/26 04:00:14;;;;;;;8.83;4.60;;;;;;;14.71;65.81;101923.66;5133661;27;20181;-58
2021/09/26 04:02:40;;;;;;;14.57;4.80;;;;;;;14.72;65.27;101925.25;5133619;27;20224;-59
2021/09/26 04:05:06;;;;;;;9.73;4.37;;;;;;;14.73;65.60;101924.03;5133321;27;20177;-58
2021/09/26 04:07:32;;;;;;;12.87;4.80;;;;;;;14.06;65.05;101822.13;5133425;27;20193;-59
2021/09/26 04:09:57;;;;;;;10.63;4.90;;;;;;;14.77;65.16;101930.31;5133586;27;20189;-59
2021/09/26 04:12:23;;;;;;;11.00;5.20;;;;;;;14.77;65.25;101933.09;5133337;27;20174;-60
2021/09/26 04:14:48;;;;;;;9.60;5.03;;;;;;;14.72;65.46;101925.25;5133135;27;20219;-59
2021/09/26 04:17:14;;;;;;;9.20;4.83;;;;;;;14.39;65.86;101873.31;5133300;27;20202;-59
2021/09/26 04:19:39;;;;;;;10.83;4.73;;;;;;;14.79;66.42;101931.47;5133334;27;20677;-59
2021/09/26 04:22:05;;;;;;;11.03;5.03;;;;;;;14.42;66.11;101875.22;5133247;27;20186;-59
2021/09/26 04:24:31;;;;;;;11.60;4.70;;;;;;;14.84;66.43;101935.75;5133050;27;20242;-58
2021/09/26 04:26:57;;;;;;;11.03;5.00;;;;;;;14.81;66.10;101928.25;5132977;27;20176;-59
2021/09/26 04:29:23;;;;;;;12.60;5.30;;;;;;;14.88;66.52;101939.25;5133311;27;20176;-61
2021/09/26 04:31:49;;;;;;;10.03;5.07;;;;;;;14.87;65.87;101941.28;5133322;27;20187;-59
2021/09/26 04:34:14;;;;;;;12.50;4.70;;;;;;;14.97;64.73;101951.41;5132682;27;20182;-59
2021/09/26 04:36:41;;;;;;;11.60;4.53;;;;;;;14.92;64.45;101945.56;5132516;27;20583;-58
2021/09/26 04:39:06;;;;;;;11.77;5.10;;;;;;;14.99;65.00;101953.78;5133240;27;20270;-60
2021/09/26 04:41:32;;;;;;;10.67;4.87;;;;;;;14.94;65.84;101945.91;5132918;27;20265;-59
2021/09/26 04:43:58;;;;;;;8.50;5.00;;;;;;;14.73;65.64;101910.06;5132903;27;20183;-59
2021/09/26 04:46:23;;;;;;;12.37;5.57;;;;;;;15.08;66.30;101957.59;5132119;27;20231;-59
2021/09/26 04:48:49;;;;;;;9.00;5.40;;;;;;;14.99;66.61;101945.41;5131749;27;20179;-59
2021/09/26 04:51:15;;;;;;;12.37;5.17;;;;;;;15.07;65.75;101967.16;5132649;27;20277;-59
2021/09/26 04:53:40;;;;;;;12.87;5.47;;;;;;;15.03;64.88;101948.91;5132348;27;20709;-59
2021/09/26 04:56:06;;;;;;;12.27;5.40;;;;;;;15.14;64.95;101964.22;5132048;27;20194;-59
2021/09/26 04:58:31;;;;;;;11.63;4.97;;;;;;;15.20;64.36;101967.28;5132791;27;20190;-59
2021/09/26 05:00:57;;;;;;;6.97;4.60;;;;;;;15.22;63.33;101973.25;5132920;27;20193;-59
2021/09/26 05:03:22;;;;;;;8.47;4.70;;;;;;;15.17;63.54;101962.56;5132444;27;20260;-59
2021/09/26 05:05:48;;;;;;;7.67;4.67;;;;;;;15.27;62.76;101964.34;5132457;27;20708;-59
2021/09/26 05:08:13;;;;;;;9.20;4.40;;;;;;;15.27;63.03;101967.16;5132341;27;20174;-59
2021/09/26 05:10:39;;;;;;;11.07;4.83;;;;;;;15.30;63.69;101975.44;5113843;27;20662;-59
2021/09/26 05:13:04;;;;;;;8.50;5.80;;;;;;;15.35;64.49;101983.34;5132419;27;20413;-59
2021/09/26 05:15:30;;;;;;;9.10;5.43;;;;;;;15.34;64.10;101986.56;5131242;27;20237;-59
2021/09/26 05:17:56;;;;;;;7.50;5.30;;;;;;;15.33;64.41;101987.78;5132336;27;20234;-59
2021/09/26 05:20:22;;;;;;;8.33;5.00;;;;;;;15.33;63.88;101983.00;5132406;27;20170;-59
2021/09/26 05:22:48;;;;;;;7.17;4.80;;;;;;;15.32;63.33;101975.03;5132073;27;20237;-59
2021/09/26 05:25:15;;;;;;;11.10;5.50;;;;;;;15.32;63.26;101984.16;5131556;27;20188;-59
2021/09/26 05:27:41;;;;;;;7.73;5.47;;;;;;;15.33;63.38;101985.78;5131791;27;20175;-59
2021/09/26 05:30:07;;;;;;;9.27;5.57;;;;;;;15.32;63.60;101992.53;5131733;27;20184;-59
2021/09/26 05:32:33;;;;;;;8.77;4.97;;;;;;;15.35;63.69;101991.72;5131625;27;20576;-59
2021/09/26 05:34:58;;;;;;;8.90;5.07;;;;;;;15.33;64.11;101985.00;5130650;27;20211;-60
2021/09/26 05:37:25;;;;;;;8.97;5.00;;;;;;;15.42;64.06;101996.38;5131352;27;20280;-59
2021/09/26 05:39:50;;;;;;;9.10;5.10;;;;;;;15.37;64.27;101982.91;5131488;27;20183;-59
2021/09/26 05:42:16;;;;;;;7.67;4.77;;;;;;;15.48;64.15;101989.81;5131556;27;20571;-59
2021/09/26 05:44:41;;;;;;;6.40;5.20;;;;;;;15.30;64.16;101949.50;5130749;27;20184;-60
2021/09/26 05:47:07;;;;;;;8.90;5.80;;;;;;;15.65;64.64;101996.25;5132018;27;20246;-59
2021/09/26 05:49:37;;;;;;;7.03;5.60;;;;;;;15.69;64.89;101992.16;5130815;27;20234;-59
2021/09/26 05:52:08;;;;;;;9.73;6.30;;;;;;;15.76;65.04;101997.56;5131299;27;20182;-58
2021/09/26 05:54:35;;;;;;;8.67;5.90;;;;;;;15.87;64.94;101997.31;5130839;27;20327;-59
2021/09/26 05:57:01;;;;;;;8.07;5.83;;;;;;;15.75;64.78;101968.06;5130831;27;20218;-59
2021/09/26 05:59:27;;;;;;;10.57;5.90;;;;;;;15.94;64.96;101995.13;5131264;27;20182;-59
2021/09/26 06:01:53;;;;;;;8.10;5.73;;;;;;;16.04;64.99;102002.47;5130851;27;20188;-59
2021/09/26 06:04:18;;;;;;;12.47;7.40;;;;;;;16.11;65.23;102009.91;5130924;27;20196;-59
2021/09/26 06:06:44;;;;;;;10.43;7.40;;;;;;;16.18;65.30;102004.94;5130557;27;20658;-59
2021/09/26 06:09:09;;;;;;;10.33;8.47;;;;;;;16.37;64.82;102011.63;5130971;27;20650;-59
2021/09/26 06:11:35;;;;;;;12.33;8.43;;;;;;;16.42;64.54;102008.34;5112483;27;20208;-59
2021/09/26 06:14:01;;;;;;;13.90;9.00;;;;;;;16.58;64.52;102019.50;5111750;27;20241;-59
2021/09/26 06:16:26;;;;;;;13.00;9.43;;;;;;;16.59;64.67;102009.91;5130156;27;20255;-58
2021/09/26 06:18:52;;;;;;;10.80;9.33;;;;;;;16.75;64.83;102027.44;5130866;27;20647;-58
2021/09/26 06:21:17;;;;;;;12.80;10.10;;;;;;;16.71;65.19;102020.38;5130260;27;20260;-59
2021/09/26 06:23:43;;;;;;;14.57;10.60;;;;;;;16.70;64.82;102016.00;5130486;27;20184;-59
2021/09/26 06:26:08;;;;;;;15.83;10.27;;;;;;;16.88;64.82;102023.94;5123836;27;20746;-59
2021/09/26 06:28:34;;;;;;;11.30;9.00;;;;;;;16.79;64.38;101996.53;5123306;27;20692;-59
2021/09/26 06:31:00;;;;;;;11.60;9.47;;;;;;;17.12;63.87;102037.22;5128547;27;20707;-58
2021/09/26 06:33:26;;;;;;;12.70;8.97;;;;;;;17.20;63.52;102030.97;5127336;27;20231;-58
2021/09/26 06:35:52;;;;;;;17.87;9.53;;;;;;;17.00;63.18;101990.38;5127703;27;20706;-59
2021/09/26 06:38:18;;;;;;;12.90;9.07;;;;;;;17.19;63.55;102021.00;5127579;27;20274;-58
2021/09/26 06:40:43;;;;;;;12.93;8.13;;;;;;;17.37;63.01;102032.47;5129175;28;20763;-58
2021/09/26 06:43:11;;;;;;;11.70;7.87;;;;;;;17.50;62.54;102038.13;5129526;28;20265;-59
2021/09/26 06:45:36;;;;;;;12.80;7.47;;;;;;;17.61;62.42;102029.41;5128408;28;20185;-59
2021/09/26 06:48:02;;;;;;;11.97;8.10;;;;;;;17.71;62.18;102023.44;5128727;28;20186;-60
2021/09/26 06:50:27;;;;;;;12.37;7.37;;;;;;;17.77;62.15;102032.91;5129114;28;20187;-60
2021/09/26 06:52:53;;;;;;;11.03;7.80;;;;;;;17.91;62.01;102035.25;5128903;28;20193;-60
2021/09/26 06:55:18;;;;;;;11.83;8.17;;;;;;;17.72;61.86;101993.41;5128342;28;20217;-60
2021/09/26 06:57:44;;;;;;;9.67;7.63;;;;;;;18.09;62.16;102035.47;5127550;28;20231;-59
2021/09/26 07:00:10;;;;;;;9.63;7.47;;;;;;;18.22;61.94;102050.25;5129216;28;20184;-60
2021/09/26 07:02:36;;;;;;;9.90;7.10;;;;;;;17.96;61.82;102005.88;5129943;28;20547;-60
2021/09/26 07:05:02;;;;;;;10.37;7.10;;;;;;;18.24;61.24;102028.16;5130074;28;20210;-60
2021/09/26 07:07:28;;;;;;;10.03;6.83;;;;;;;18.41;60.41;102054.06;5130228;28;20176;-60
2021/09/26 07:09:53;;;;;;;7.30;6.20;;;;;;;18.46;59.25;102057.09;5129936;28;20182;-59
2021/09/26 07:12:20;;;;;;;8.43;6.03;;;;;;;18.57;58.49;102051.91;5130850;27;20205;-60
2021/09/26 07:14:46;;;;;;;10.03;6.10;;;;;;;18.67;58.25;102056.38;5133744;27;20487;-59
2021/09/26 07:17:12;;;;;;;7.83;6.17;;;;;;;18.77;58.12;102060.84;5133637;27;20284;-60
2021/09/26 07:19:39;;;;;;;8.50;5.87;;;;;;;18.75;57.70;102048.50;5134123;27;20710;-60
2021/09/26 07:22:05;;;;;;;9.33;6.10;;;;;;;18.69;57.62;102061.53;5134170;27;20730;-60
2021/09/26 07:24:30;;;;;;;12.47;6.20;;;;;;;18.64;57.54;102054.50;5133790;27;20185;-60
2021/09/26 07:26:56;;;;;;;9.33;6.17;;;;;;;18.81;57.40;102064.31;5133878;27;20176;-60
2021/09/26 07:29:21;;;;;;;7.87;6.20;;;;;;;18.93;57.33;102069.09;5133936;27;20209;-60
2021/09/26 07:31:47;;;;;;;8.83;5.27;;;;;;;19.06;57.38;102074.66;5133547;27;20207;-60
2021/09/26 07:34:13;;;;;;;7.63;5.40;;;;;;;18.91;57.14;102032.25;5133823;27;20286;-60
2021/09/26 07:36:38;;;;;;;0.00;0.00;;;;;;;19.24;56.50;102067.19;5114686;27;20255;-60
2021/09/26 07:39:05;;;;;;;5.23;2.53;;;;;;;19.41;56.24;102065.75;5134390;27;20268;-61
2021/09/26 07:41:31;;;;;;;9.57;5.60;;;;;;;19.52;56.03;102065.34;5133594;27;20185;-61
2021/09/26 07:43:58;;;;;;;8.47;5.43;;;;;;;19.66;55.93;102067.63;5133748;27;20227;-61
2021/09/26 07:46:23;;;;;;;9.10;5.83;;;;;;;19.71;53.84;102061.41;5132931;27;20178;-60
2021/09/26 07:48:49;;;;;;;7.20;4.80;;;;;;;19.82;54.19;102070.22;5133837;27;20180;-60
2021/09/26 07:51:15;;;;;;;6.30;5.20;;;;;;;19.90;53.56;102075.09;5133266;27;20189;-61
2021/09/26 07:53:40;;;;;;;9.17;5.73;;;;;;;19.87;54.57;102066.78;5133290;27;20641;-61
2021/09/26 07:56:06;;;;;;;11.17;5.50;;;;;;;19.92;54.06;102072.63;5132982;27;20205;-61
2021/09/26 07:58:32;;;;;;;11.07;5.60;;;;;;;19.77;54.26;102032.22;5133176;27;20303;-61
2021/09/26 08:00:59;;;;;;;7.37;5.40;;;;;;;20.19;54.00;102063.50;5133239;27;20264;-61
2021/09/26 08:03:25;;;;;;;8.87;5.40;;;;;;;20.00;53.76;102020.41;5133343;27;20238;-60
2021/09/26 08:05:51;;;;;;;11.67;5.93;;;;;;;20.20;53.52;102025.66;5132827;27;20204;-60
2021/09/26 08:08:16;;;;;;;8.33;5.03;;;;;;;20.40;51.90;102062.63;5133312;27;20206;-60
2021/09/26 08:10:42;;;;;;;8.03;5.37;;;;;;;20.40;52.38;102066.25;5132825;27;20209;-60
2021/09/26 08:13:07;;;;;;;11.90;6.03;;;;;;;20.49;52.58;102055.00;5133180;27;20185;-60
2021/09/26 08:15:33;;;;;;;9.13;6.30;;;;;;;20.62;52.16;102057.69;5131908;27;20710;-61
2021/09/26 08:17:59;;;;;;;9.80;6.07;;;;;;;20.75;51.44;102063.94;5133152;27;20192;-60
2021/09/26 08:20:25;;;;;;;7.93;5.80;;;;;;;20.84;50.37;102063.97;5132875;27;20678;-60
2021/09/26 08:22:52;;;;;;;10.90;6.20;;;;;;;20.90;50.72;102057.28;5132684;27;20193;-60
2021/09/26 08:25:18;;;;;;;10.87;5.90;;;;;;;21.01;49.83;102065.25;5132270;27;20186;-60
2021/09/26 08:27:44;;;;;;;8.23;5.70;;;;;;;21.13;49.97;102067.13;5132622;27;20710;-60
2021/09/26 08:30:10;;;;;;;8.90;6.03;;;;;;;21.21;49.76;102063.53;5132811;27;20177;-60
2021/09/26 08:32:37;;;;;;;8.83;6.10;;;;;;;21.33;49.91;102062.56;5132331;27;20177;-60
2021/09/26 08:35:04;;;;;;;9.33;6.50;;;;;;;21.47;49.97;102061.91;5132121;27;20254;-59
2021/09/26 08:37:30;;;;;;;9.77;6.20;;;;;;;21.60;49.62;102048.38;5132519;27;20693;-61
2021/09/26 08:39:55;;;;;;;14.40;6.60;;;;;;;21.77;48.28;102040.38;5132726;27;20178;-60
2021/09/26 08:42:22;;;;;;;10.07;6.00;;;;;;;21.85;47.61;102039.56;5132473;27;20185;-60
2021/09/26 08:44:49;;;;;;;11.50;6.10;;;;;;;22.01;48.10;102042.00;5132422;27;20264;-61
2021/09/26 08:47:16;;;;;;;8.60;5.90;;;;;;;22.13;47.90;102026.91;5132621;27;20662;-60
2021/09/26 08:49:41;;;;;;;9.07;5.53;;;;;;;22.32;47.82;102039.63;5132310;27;20177;-60
2021/09/26 08:52:08;;;;;;;8.13;4.83;;;;;;;22.44;46.66;102040.66;5132333;27;20181;-61
2021/09/26 08:54:33;;;;;;;7.13;5.40;;;;;;;22.61;47.01;102039.81;5132025;27;20185;-60
2021/09/26 08:56:59;;;;;;;8.33;5.00;;;;;;;22.74;47.09;102037.53;5131818;27;20337;-60
2021/09/26 08:59:24;;;;;;;8.83;5.10;;;;;;;22.77;45.79;102025.22;5132674;27;20217;-60
2021/09/26 09:01:50;;;;;;;10.07;5.40;;;;;;;22.82;46.12;102024.56;5131804;27;20235;-60
2021/09/26 09:04:15;;;;;;;7.33;5.03;;;;;;;22.71;46.18;101979.13;5131941;27;20250;-60
2021/09/26 09:06:44;;;;;;;7.37;5.33;;;;;;;23.21;45.87;102028.16;5131983;27;20645;-60
2021/09/26 09:09:16;;;;;;;8.27;4.97;;;;;;;23.42;45.43;102019.31;5131989;27;20655;-60
2021/09/26 09:12:05;;;;;;;7.40;4.87;;;;;;;23.42;44.59;102030.63;5131645;27;20245;-60
2021/09/26 09:14:55;;;;;;;7.47;4.37;;;;;;;23.47;44.39;102017.84;5117851;27;20293;-60
2021/09/26 09:17:31;;;;;;;8.47;4.60;;;;;;;23.49;43.99;102012.47;5130753;27;20254;-61
2021/09/26 09:20:18;;;;;;;6.93;4.20;;;;;;;23.62;44.66;102007.28;5130861;27;20242;-61
2021/09/26 09:22:46;;;;;;;7.97;4.27;;;;;;;23.78;44.17;102007.56;5130928;27;20210;-61
2021/09/26 09:25:49;;;;;;;6.97;4.30;;;;;;;23.81;43.95;102009.44;5130735;27;20552;-60
2021/09/26 09:28:15;;;;;;;9.37;5.63;;;;;;;23.85;43.80;102018.47;5130895;27;20646;-60
2021/09/26 09:30:51;;;;;;;8.13;5.00;;;;;;;23.99;43.57;102005.59;5130609;27;20185;-60
2021/09/26 09:33:18;;;;;;;10.23;5.13;;;;;;;23.98;42.88;101978.53;5130281;27;20700;-60
2021/09/26 09:35:48;;;;;;;11.60;5.20;;;;;;;24.25;43.70;102007.25;5129465;27;20181;-60
2021/09/26 09:38:37;;;;;;;7.87;4.67;;;;;;;24.46;43.56;101999.56;5130916;27;20677;-61
2021/09/26 09:41:03;;;;;;;7.77;4.83;;;;;;;24.64;42.62;101997.25;5119672;27;20220;-60
2021/09/26 09:43:29;;;;;;;6.43;4.50;;;;;;;24.78;41.70;101998.44;5130491;27;20181;-60
2021/09/26 09:46:01;;;;;;;11.17;4.93;;;;;;;24.85;41.06;101990.28;5129970;27;20193;-61
2021/09/26 09:48:31;;;;;;;9.70;4.67;;;;;;;24.93;41.64;101987.78;5130573;27;20178;-61
2021/09/26 09:51:04;;;;;;;6.80;4.60;;;;;;;25.07;40.93;101987.66;5130163;27;20181;-60
2021/09/26 09:53:46;;;;;;;10.30;5.13;;;;;;;25.16;40.53;101987.50;5129854;27;20189;-61
2021/09/26 09:56:19;;;;;;;7.53;4.70;;;;;;;25.24;40.23;101990.69;5129773;27;20674;-60
2021/09/26 09:58:50;;;;;;;11.57;4.80;;;;;;;25.42;40.29;101982.63;5130718;27;20181;-61
2021/09/26 10:01:33;;;;;;;8.37;4.53;;;;;;;25.61;39.78;101975.31;5131018;27;20569;-61
2021/09/26 10:04:01;;;;;;;21.00;4.80;;;;;;;25.70;39.40;101975.09;5131307;27;20171;-60
2021/09/26 10:06:40;;;;;;;7.30;4.77;;;;;;;25.75;38.68;101979.28;5130795;27;20235;-60
2021/09/26 10:09:15;;;;;;;6.90;4.23;;;;;;;25.71;38.42;101981.56;5131403;27;20176;-60
2021/09/26 10:11:48;;;;;;;5.67;4.10;;;;;;;25.74;38.76;101969.97;5131240;27;20173;-60
2021/09/26 10:14:14;;;;;;;7.93;4.33;;;;;;;25.95;38.88;101976.34;5130682;27;20301;-60
2021/09/26 10:16:40;;;;;;;8.77;4.17;;;;;;;26.09;37.87;101969.69;5130607;27;20285;-61
2021/09/26 10:19:06;;;;;;;8.30;4.37;;;;;;;26.10;38.02;101966.34;5110901;28;20197;-61
2021/09/26 10:21:32;;;;;;;5.80;4.27;;;;;;;26.24;37.96;101961.75;5117658;27;20650;-60
2021/09/26 10:23:58;;;;;;;6.50;3.93;;;;;;;26.31;37.11;101953.53;5131222;27;20604;-61
2021/09/26 10:26:26;;;;;;;5.40;4.30;;;;;;;25.96;37.79;101899.16;5130481;27;20170;-61
2021/09/26 10:28:55;;;;;;;8.40;4.00;;;;;;;26.43;37.06;101943.00;5131155;27;20394;-60
2021/09/26 10:31:21;;;;;;;7.93;4.10;;;;;;;26.43;36.60;101951.53;5122437;27;20566;-61
2021/09/26 10:33:47;;;;;;;7.63;4.23;;;;;;;26.51;37.47;101949.75;5128681;27;20730;-61
2021/09/26 10:36:17;;;;;;;5.97;4.00;;;;;;;26.63;36.38;101940.78;5105862;28;20205;-61
2021/09/26 10:38:45;;;;;;;7.47;3.93;;;;;;;26.70;36.71;101942.31;5129708;27;20568;-60
2021/09/26 10:41:11;;;;;;;7.57;3.90;;;;;;;26.79;36.56;101927.88;5128930;28;20169;-61
2021/09/26 10:43:36;;;;;;;8.00;4.23;;;;;;;27.00;36.35;101924.31;5130283;28;20620;-60
2021/09/26 10:46:19;;;;;;;5.90;3.83;;;;;;;27.02;36.65;101929.47;5129834;27;20220;-60
2021/09/26 10:48:56;;;;;;;6.60;3.80;;;;;;;27.16;35.95;101917.84;5115968;27;20212;-60
2021/09/26 10:51:45;;;;;;;10.23;4.20;;;;;;;27.37;34.61;101924.06;5115642;27;20188;-60
2021/09/26 10:54:19;;;;;;;8.83;4.03;;;;;;;27.41;34.94;101918.88;5133993;27;20604;-61
2021/09/26 10:56:45;;;;;;;7.03;3.97;;;;;;;27.51;34.69;101908.78;5133300;27;20200;-60
2021/09/26 10:59:12;;;;;;;8.40;4.13;;;;;;;27.46;34.52;101909.56;5134217;27;20608;-60
2021/09/26 11:01:38;;;;;;;8.43;4.27;;;;;;;27.65;35.05;101908.53;5134264;27;20206;-62
2021/09/26 11:04:03;;;;;;;8.43;3.73;;;;;;;27.91;34.87;101914.72;5134044;27;20181;-60
2021/09/26 11:06:29;;;;;;;7.93;3.97;;;;;;;28.13;34.37;101919.53;5133305;27;20177;-60
2021/09/26 11:09:01;;;;;;;9.07;4.03;;;;;;;28.05;33.74;101907.91;5133903;27;20173;-60
2021/09/26 11:11:39;;;;;;;9.02;4.03;;;;;;;28.32;33.94;101911.94;5133747;27;20180;-62
2021/09/26 11:14:08;;;;;;;8.23;4.25;;;;;;;28.33;33.21;101910.66;5133554;27;20300;-61
2021/09/26 11:16:58;;;;;;;5.53;3.83;;;;;;;28.49;33.70;101902.03;5133313;27;20213;-61
2021/09/26 11:19:28;;;;;;;8.43;4.32;;;;;;;28.60;33.05;101892.63;5115424;27;20319;-60
2021/09/26 11:21:58;;;;;;;7.55;3.78;;;;;;;28.72;32.99;101889.19;5134166;27;20189;-61
2021/09/26 11:24:36;;;;;;;6.82;3.70;;;;;;;28.89;31.70;101881.31;5134099;27;20185;-62
2021/09/26 11:27:17;;;;;;;7.05;4.03;;;;;;;28.97;32.15;101870.88;5133797;27;20173;-61